createdAt,value
2022-09-02T00:01:15.828Z,13.57
2022-09-02T00:03:44.391Z,13.52
2022-09-02T00:06:12.566Z,13.45
2022-09-02T00:08:42.216Z,13.39
2022-09-02T00:11:14.818Z,13.38
2022-09-02T00:13:43.586Z,13.23
2022-09-02T00:16:11.911Z,13.31
2022-09-02T00:18:40.279Z,13.23
2022-09-02T00:21:14.192Z,13.22
2022-09-02T00:23:44.315Z,13.20
2022-09-02T00:26:13.271Z,13.12
2022-09-02T00:28:48.873Z,13.14
2022-09-02T00:31:23.360Z,13.15
2022-09-02T00:33:51.943Z,13.05
2022-09-02T00:36:19.880Z,13.07
2022-09-02T00:38:49.105Z,13.10
2022-09-02T00:41:16.858Z,13.06
2022-09-02T00:43:47.249Z,13.04
2022-09-02T00:46:16.830Z,13.00
2022-09-02T00:48:48.171Z,12.92
2022-09-02T00:51:16.959Z,12.91
2022-09-02T00:53:46.340Z,12.87
2022-09-02T00:56:19.266Z,12.90
2022-09-02T00:58:47.438Z,12.78
2022-09-02T01:01:15.279Z,12.92
2022-09-02T01:03:43.680Z,12.89
2022-09-02T01:06:15.256Z,12.83
2022-09-02T01:08:45.744Z,12.77
2022-09-02T01:11:16.313Z,12.76
2022-09-02T01:13:44.391Z,12.82
2022-09-02T01:16:15.047Z,12.78
2022-09-02T01:18:44.331Z,12.65
2022-09-02T01:21:12.166Z,12.68
2022-09-02T01:23:41.176Z,12.73
2022-09-02T01:26:10.750Z,12.67
2022-09-02T01:28:39.178Z,12.56
2022-09-02T01:31:07.078Z,12.68
2022-09-02T01:33:34.991Z,12.64
2022-09-02T01:36:04.543Z,12.55
2022-09-02T01:38:32.933Z,12.56
2022-09-02T01:41:02.012Z,12.37
2022-09-02T01:43:30.186Z,12.37
2022-09-02T01:45:59.607Z,12.39
2022-09-02T01:48:27.279Z,12.31
2022-09-02T01:50:56.856Z,12.18
2022-09-02T01:53:24.967Z,12.22
2022-09-02T01:55:52.655Z,12.41
2022-09-02T01:58:21.871Z,12.34
2022-09-02T02:00:49.455Z,12.25
2022-09-02T02:03:17.173Z,12.25
2022-09-02T02:05:45.054Z,12.19
2022-09-02T02:08:12.776Z,12.28
2022-09-02T02:10:42.582Z,12.10
2022-09-02T02:13:10.917Z,12.23
2022-09-02T02:15:41.390Z,12.03
2022-09-02T02:18:09.339Z,12.00
2022-09-02T02:20:37.360Z,12.10
2022-09-02T02:23:05.857Z,12.03
2022-09-02T02:25:33.624Z,12.04
2022-09-02T02:28:02.557Z,11.89
2022-09-02T02:30:30.444Z,11.98
2022-09-02T02:32:59.432Z,12.02
2022-09-02T02:35:27.293Z,11.86
2022-09-02T02:37:55.384Z,12.01
2022-09-02T02:40:25.289Z,12.17
2022-09-02T02:42:54.185Z,12.18
2022-09-02T02:45:22.448Z,11.90
2022-09-02T02:47:51.222Z,11.88
2022-09-02T02:50:21.518Z,11.70
2022-09-02T02:52:49.782Z,11.81
2022-09-02T02:55:17.858Z,11.81
2022-09-02T02:57:46.008Z,11.76
2022-09-02T03:00:16.914Z,11.82
2022-09-02T03:02:44.652Z,11.75
2022-09-02T03:05:14.471Z,11.56
2022-09-02T03:07:43.885Z,11.79
2022-09-02T03:10:13.463Z,11.79
2022-09-02T03:12:41.519Z,11.67
2022-09-02T03:15:11.219Z,11.73
2022-09-02T03:17:39.075Z,11.79
2022-09-02T03:20:08.304Z,11.74
2022-09-02T03:22:38.718Z,11.81
2022-09-02T03:25:09.216Z,11.95
2022-09-02T03:27:38.158Z,11.68
2022-09-02T03:30:07.816Z,11.79
2022-09-02T03:32:35.421Z,11.90
2022-09-02T03:35:03.102Z,11.90
2022-09-02T03:37:30.767Z,11.94
2022-09-02T03:39:58.376Z,11.88
2022-09-02T03:42:27.412Z,11.78
2022-09-02T03:44:55.078Z,11.79
2022-09-02T03:47:24.447Z,11.62
2022-09-02T03:49:52.641Z,11.64
2022-09-02T03:52:20.236Z,11.73
2022-09-02T03:54:47.984Z,11.57
2022-09-02T03:57:15.774Z,11.62
2022-09-02T03:59:44.759Z,11.61
2022-09-02T04:02:12.872Z,11.56
2022-09-02T04:04:40.615Z,11.59
2022-09-02T04:07:08.363Z,11.59
2022-09-02T04:09:35.975Z,11.54
2022-09-02T04:12:04.347Z,11.49
2022-09-02T04:14:32.175Z,11.50
2022-09-02T04:17:01.125Z,11.49
2022-09-02T04:19:28.687Z,11.32
2022-09-02T04:21:56.335Z,11.39
2022-09-02T04:24:24.298Z,11.34
2022-09-02T04:26:51.891Z,11.30
2022-09-02T04:29:20.299Z,11.25
2022-09-02T04:31:47.942Z,11.29
2022-09-02T04:34:16.890Z,11.19
2022-09-02T04:36:44.687Z,11.27
2022-09-02T04:39:12.769Z,11.25
2022-09-02T04:41:40.363Z,11.25
2022-09-02T04:44:09.444Z,11.01
2022-09-02T04:46:37.163Z,11.11
2022-09-02T04:49:05.803Z,11.19
2022-09-02T04:51:34.775Z,11.14
2022-09-02T04:54:02.623Z,11.18
2022-09-02T04:56:32.119Z,11.22
2022-09-02T04:59:00.018Z,11.09
2022-09-02T05:01:30.358Z,11.17
2022-09-02T05:03:58.080Z,11.14
2022-09-02T05:06:28.303Z,11.17
2022-09-02T05:08:59.005Z,11.17
2022-09-02T05:11:28.481Z,11.18
2022-09-02T05:13:58.037Z,11.19
2022-09-02T05:16:28.787Z,11.12
2022-09-02T05:18:56.772Z,11.24
2022-09-02T05:21:24.654Z,11.33
2022-09-02T05:23:54.636Z,11.31
2022-09-02T05:26:23.999Z,11.24
2022-09-02T05:28:51.756Z,11.42
2022-09-02T05:31:21.301Z,11.50
2022-09-02T05:33:49.331Z,11.44
2022-09-02T05:36:19.554Z,11.40
2022-09-02T05:38:47.720Z,11.46
2022-09-02T05:41:19.629Z,11.63
2022-09-02T05:43:48.576Z,11.70
2022-09-02T05:46:18.844Z,11.93
2022-09-02T05:49:04.925Z,11.92
2022-09-02T05:51:33.506Z,11.97
2022-09-02T05:54:02.026Z,11.93
2022-09-02T05:56:29.680Z,12.16
2022-09-02T05:59:00.818Z,12.08
2022-09-02T06:01:30.052Z,12.18
2022-09-02T06:03:58.821Z,12.23
2022-09-02T06:06:26.406Z,12.37
2022-09-02T06:08:54.006Z,12.59
2022-09-02T06:11:22.119Z,12.58
2022-09-02T06:13:50.034Z,12.64
2022-09-02T06:16:20.996Z,12.76
2022-09-02T06:18:50.752Z,12.85
2022-09-02T06:21:20.706Z,14.02
2022-09-02T06:23:49.108Z,15.88
2022-09-02T06:26:19.228Z,16.16
2022-09-02T06:28:46.935Z,17.07
2022-09-02T06:31:16.741Z,17.13
2022-09-02T06:33:47.319Z,16.09
2022-09-02T06:36:16.594Z,14.78
2022-09-02T06:38:46.203Z,14.60
2022-09-02T06:41:16.187Z,14.16
2022-09-02T06:43:44.018Z,14.19
2022-09-02T06:46:16.767Z,13.97
2022-09-02T06:48:45.938Z,14.09
2022-09-02T06:51:17.606Z,14.05
2022-09-02T06:53:45.255Z,14.19
2022-09-02T06:56:12.912Z,14.12
2022-09-02T06:58:40.779Z,14.28
2022-09-02T07:01:08.526Z,14.28
2022-09-02T07:03:53.659Z,14.50
2022-09-02T07:06:22.660Z,14.49
2022-09-02T07:08:50.695Z,14.56
2022-09-02T07:11:20.003Z,14.71
2022-09-02T07:13:47.947Z,14.77
2022-09-02T07:16:20.439Z,14.98
2022-09-02T07:18:54.677Z,15.09
2022-09-02T07:21:23.687Z,15.26
2022-09-02T07:23:51.274Z,15.31
2022-09-02T07:26:19.177Z,15.36
2022-09-02T07:28:47.243Z,15.58
2022-09-02T07:31:16.737Z,15.68
2022-09-02T07:33:45.263Z,15.79
2022-09-02T07:36:21.473Z,15.91
2022-09-02T07:38:50.505Z,15.92
2022-09-02T07:41:18.091Z,16.16
2022-09-02T07:43:49.609Z,16.18
2022-09-02T07:46:19.359Z,16.33
2022-09-02T07:48:50.121Z,16.54
2022-09-02T07:51:18.352Z,16.65
2022-09-02T07:53:46.409Z,16.73
2022-09-02T07:56:15.415Z,16.91
2022-09-02T07:58:44.228Z,17.16
2022-09-02T08:01:12.284Z,17.19
2022-09-02T08:03:41.710Z,17.07
2022-09-02T08:06:10.331Z,17.30
2022-09-02T08:08:38.040Z,17.52
2022-09-02T08:11:07.346Z,17.46
2022-09-02T08:13:36.823Z,17.53
2022-09-02T08:16:05.415Z,17.82
2022-09-02T08:18:33.651Z,17.90
2022-09-02T08:21:01.714Z,18.16
2022-09-02T08:23:37.709Z,18.12
2022-09-02T08:26:06.432Z,18.14
2022-09-02T08:28:34.501Z,18.10
2022-09-02T08:31:07.573Z,18.29
2022-09-02T08:33:35.214Z,18.44
2022-09-02T08:36:05.046Z,18.47
2022-09-02T08:38:32.735Z,18.59
2022-09-02T08:41:00.782Z,18.81
2022-09-02T08:43:32.684Z,18.94
2022-09-02T08:46:05.247Z,18.97
2022-09-02T08:48:38.987Z,19.11
2022-09-02T08:51:10.074Z,19.21
2022-09-02T08:53:42.171Z,19.28
2022-09-02T08:56:12.688Z,19.38
2022-09-02T08:58:42.298Z,19.54
2022-09-02T09:01:16.742Z,19.65
2022-09-02T09:04:01.016Z,19.71
2022-09-02T09:06:35.578Z,20.09
2022-09-02T09:09:07.960Z,20.18
2022-09-02T09:11:42.738Z,20.23
2022-09-02T09:14:20.420Z,20.41
2022-09-02T09:16:52.271Z,20.43
2022-09-02T09:19:26.539Z,20.67
2022-09-02T09:21:55.483Z,20.68
2022-09-02T09:24:27.443Z,20.78
2022-09-02T09:26:55.826Z,20.88
2022-09-02T09:29:23.429Z,20.87
2022-09-02T09:31:58.132Z,20.99
2022-09-02T09:34:56.475Z,21.01
2022-09-02T09:37:35.218Z,20.72
2022-09-02T09:40:22.916Z,20.87
2022-09-02T09:42:55.244Z,21.09
2022-09-02T09:45:28.445Z,21.10
2022-09-02T09:48:17.585Z,21.35
2022-09-02T09:50:47.490Z,21.38
2022-09-02T09:53:16.255Z,21.30
2022-09-02T09:55:52.979Z,21.40
2022-09-02T09:58:21.176Z,21.45
2022-09-02T10:00:48.853Z,21.45
2022-09-02T10:03:23.405Z,21.52
2022-09-02T10:05:55.271Z,21.55
2022-09-02T10:08:24.407Z,21.64
2022-09-02T10:11:00.540Z,21.73
2022-09-02T10:13:30.558Z,21.81
2022-09-02T10:16:14.919Z,21.94
2022-09-02T10:18:49.199Z,22.06
2022-09-02T10:21:28.488Z,22.09
2022-09-02T10:24:00.635Z,22.22
2022-09-02T10:26:35.439Z,22.26
2022-09-02T10:29:36.259Z,22.06
2022-09-02T10:32:24.362Z,21.99
2022-09-02T10:35:01.309Z,22.12
2022-09-02T10:37:36.896Z,22.28
2022-09-02T10:40:10.328Z,22.37
2022-09-02T10:42:46.541Z,22.51
2022-09-02T10:45:18.093Z,22.52
2022-09-02T10:50:38.846Z,22.76
2022-09-02T10:53:33.788Z,22.96
2022-09-02T10:56:03.743Z,22.80
2022-09-02T10:58:40.495Z,22.64
2022-09-02T11:01:09.408Z,22.91
2022-09-02T11:03:42.042Z,23.22
2022-09-02T11:06:13.971Z,23.11
2022-09-02T11:08:46.879Z,22.95
2022-09-02T11:11:21.347Z,22.92
2022-09-02T11:13:58.535Z,23.05
2022-09-02T11:16:30.105Z,23.09
2022-09-02T11:19:02.100Z,23.12
2022-09-02T11:21:38.413Z,23.19
2022-09-02T11:24:10.067Z,23.35
2022-09-02T11:26:40.448Z,23.55
2022-09-02T11:29:13.839Z,23.29
2022-09-02T11:31:45.261Z,23.26
2022-09-02T11:34:35.131Z,23.53
2022-09-02T11:37:04.343Z,23.73
2022-09-02T11:39:54.164Z,23.68
2022-09-02T11:42:36.830Z,23.83
2022-09-02T11:45:40.542Z,24.12
2022-09-02T11:48:29.372Z,24.01
2022-09-02T11:51:06.796Z,24.05
2022-09-02T11:53:38.799Z,24.01
2022-09-02T11:56:15.961Z,24.10
2022-09-02T11:58:44.919Z,23.77
2022-09-02T12:01:34.072Z,23.86
2022-09-02T12:07:50.678Z,24.15
2022-09-02T12:10:51.712Z,24.38
2022-09-02T12:13:34.422Z,24.10
2022-09-02T12:16:37.143Z,24.14
2022-09-02T12:19:28.931Z,24.30
2022-09-02T12:22:33.562Z,23.90
2022-09-02T12:25:03.394Z,24.16
2022-09-02T12:27:34.361Z,24.23
2022-09-02T12:30:02.012Z,24.33
2022-09-02T12:33:12.453Z,24.06
2022-09-02T12:35:57.619Z,23.62
2022-09-02T12:38:34.063Z,23.90
2022-09-02T12:41:21.988Z,24.05
2022-09-02T12:44:14.875Z,24.49
2022-09-02T12:46:57.249Z,24.48
2022-09-02T12:49:48.349Z,24.32
2022-09-02T12:52:40.890Z,24.18
2022-09-02T12:55:12.176Z,24.23
2022-09-02T12:57:42.304Z,24.08
2022-09-02T13:00:14.623Z,24.31
2022-09-02T13:02:53.091Z,24.47
2022-09-02T13:05:25.929Z,24.84
2022-09-02T13:08:17.305Z,25.24
2022-09-02T13:11:21.216Z,25.13
2022-09-02T13:14:33.780Z,24.95
2022-09-02T13:17:35.727Z,24.38
2022-09-02T13:20:29.948Z,24.09
2022-09-02T13:23:12.163Z,24.12
2022-09-02T13:26:01.420Z,24.28
2022-09-02T13:29:00.095Z,24.41
2022-09-02T13:31:29.332Z,24.76
2022-09-02T13:34:00.919Z,25.35
2022-09-02T13:36:33.584Z,25.50
2022-09-02T13:39:12.374Z,25.25
2022-09-02T13:41:40.000Z,25.43
2022-09-02T13:44:09.295Z,25.60
2022-09-02T13:46:46.610Z,25.50
2022-09-02T13:49:22.659Z,25.79
2022-09-02T13:51:51.475Z,25.44
2022-09-02T13:54:27.553Z,25.24
2022-09-02T13:56:55.503Z,25.39
2022-09-02T13:59:33.701Z,25.49
2022-09-02T14:02:28.242Z,25.39
2022-09-02T14:04:59.156Z,25.51
2022-09-02T14:07:32.966Z,25.13
2022-09-02T14:10:02.938Z,25.25
2022-09-02T14:12:33.581Z,25.47
2022-09-02T14:15:01.954Z,25.24
2022-09-02T14:17:30.914Z,25.17
2022-09-02T14:20:19.126Z,24.96
2022-09-02T14:22:53.803Z,25.17
2022-09-02T14:25:26.685Z,25.29
2022-09-02T14:27:56.176Z,25.50
2022-09-02T14:30:34.496Z,25.33
2022-09-02T14:33:20.657Z,25.15
2022-09-02T14:36:01.995Z,25.02
2022-09-02T14:38:31.130Z,25.07
2022-09-02T14:41:12.331Z,25.25
2022-09-02T14:43:45.382Z,25.40
2022-09-02T14:46:23.338Z,25.84
2022-09-02T14:48:57.398Z,25.85
2022-09-02T14:51:29.204Z,25.69
2022-09-02T14:53:56.809Z,25.86
2022-09-02T14:56:49.378Z,25.49
2022-09-02T14:59:21.096Z,25.26
2022-09-02T15:01:50.847Z,25.37
2022-09-02T15:04:20.463Z,25.59
2022-09-02T15:06:48.902Z,25.64
2022-09-02T15:09:17.239Z,25.64
2022-09-02T15:11:46.963Z,25.47
2022-09-02T15:14:14.655Z,25.49
2022-09-02T15:16:42.248Z,26.14
2022-09-02T15:19:09.818Z,25.81
2022-09-02T15:21:38.776Z,25.71
2022-09-02T15:24:06.618Z,25.32
2022-09-02T15:26:34.236Z,25.02
2022-09-02T15:29:03.347Z,25.06
2022-09-02T15:31:31.162Z,24.95
2022-09-02T15:33:59.243Z,24.89
2022-09-02T15:36:27.699Z,25.39
2022-09-02T15:38:56.659Z,25.18
2022-09-02T15:41:27.259Z,24.97
2022-09-02T15:43:55.142Z,25.18
2022-09-02T15:46:27.396Z,25.20
2022-09-02T15:48:59.032Z,25.47
2022-09-02T15:51:29.835Z,25.25
2022-09-02T15:53:59.958Z,25.34
2022-09-02T15:56:29.903Z,25.43
2022-09-02T15:58:58.904Z,25.09
2022-09-02T16:01:27.441Z,25.19
2022-09-02T16:03:55.198Z,25.05
2022-09-02T16:06:23.064Z,24.99
2022-09-02T16:08:50.758Z,25.29
2022-09-02T16:11:19.776Z,25.04
2022-09-02T16:13:47.436Z,24.81
2022-09-02T16:16:15.476Z,24.83
2022-09-02T16:18:43.841Z,24.67
2022-09-02T16:21:13.255Z,24.73
2022-09-02T16:23:40.903Z,24.38
2022-09-02T16:26:14.792Z,24.17
2022-09-02T16:28:45.116Z,24.61
2022-09-02T16:31:14.491Z,24.71
2022-09-02T16:33:43.979Z,24.85
2022-09-02T16:36:12.201Z,24.59
2022-09-02T16:38:39.830Z,24.42
2022-09-02T16:41:07.393Z,24.51
2022-09-02T16:43:37.291Z,24.46
2022-09-02T16:46:06.544Z,24.52
2022-09-02T16:48:34.948Z,24.49
2022-09-02T16:51:04.160Z,24.18
2022-09-02T16:53:32.203Z,24.17
2022-09-02T16:55:59.799Z,23.96
2022-09-02T16:58:27.571Z,23.93
2022-09-02T17:00:55.209Z,24.16
2022-09-02T17:03:24.873Z,24.14
2022-09-02T17:05:52.606Z,24.17
2022-09-02T17:08:20.171Z,23.92
2022-09-02T17:10:47.744Z,23.78
2022-09-02T17:13:15.383Z,23.77
2022-09-02T17:15:42.999Z,23.80
2022-09-02T17:18:10.595Z,23.56
2022-09-02T17:20:40.362Z,23.31
2022-09-02T17:23:08.621Z,23.25
2022-09-02T17:25:36.219Z,23.06
2022-09-02T17:28:04.142Z,22.76
2022-09-02T17:30:31.894Z,22.66
2022-09-02T17:32:59.557Z,22.44
2022-09-02T17:35:27.143Z,22.54
2022-09-02T17:37:56.503Z,22.54
2022-09-02T17:40:41.887Z,22.34
2022-09-02T17:43:09.462Z,22.32
2022-09-02T17:45:37.409Z,22.39
2022-09-02T17:48:34.250Z,22.21
2022-09-02T17:50:52.960Z,22.40
2022-09-02T17:53:23.398Z,22.23
2022-09-02T17:55:51.307Z,22.12
2022-09-02T17:58:22.721Z,22.16
2022-09-02T18:00:52.818Z,22.10
2022-09-02T18:03:37.370Z,21.80
2022-09-02T18:06:12.588Z,21.52
2022-09-02T18:08:47.286Z,21.22
2022-09-02T18:11:15.005Z,21.17
2022-09-02T18:13:54.558Z,20.97
2022-09-02T18:16:31.971Z,20.84
2022-09-02T18:19:16.249Z,20.74
2022-09-02T18:21:52.117Z,20.71
2022-09-02T18:24:31.162Z,20.59
2022-09-02T18:27:08.540Z,20.44
2022-09-02T18:29:46.082Z,20.29
2022-09-02T18:32:22.220Z,19.95
2022-09-02T18:34:57.764Z,19.73
2022-09-02T18:37:35.105Z,19.83
2022-09-02T18:40:16.631Z,19.46
2022-09-02T18:42:50.924Z,19.25
2022-09-02T18:45:23.603Z,19.20
2022-09-02T18:47:54.991Z,19.55
2022-09-02T18:50:45.309Z,19.32
2022-09-02T18:53:15.672Z,19.44
2022-09-02T18:55:45.223Z,19.40
2022-09-02T18:58:15.520Z,19.44
2022-09-02T19:00:48.155Z,19.40
2022-09-02T19:03:15.995Z,19.28
2022-09-02T19:05:43.664Z,18.99
2022-09-02T19:08:32.643Z,19.09
2022-09-02T19:11:04.014Z,19.18
2022-09-02T19:13:34.686Z,19.38
2022-09-02T19:16:04.260Z,19.13
2022-09-02T19:18:33.151Z,19.26
2022-09-02T19:21:00.773Z,18.94
2022-09-02T19:23:28.731Z,19.12
2022-09-02T19:25:57.672Z,18.84
2022-09-02T19:28:26.995Z,18.80
2022-09-02T19:30:58.772Z,18.43
2022-09-02T19:33:27.407Z,18.38
2022-09-02T19:35:54.959Z,18.45
2022-09-02T19:38:22.658Z,18.08
2022-09-02T19:40:50.299Z,18.15
2022-09-02T19:43:17.882Z,18.31
2022-09-02T19:45:50.241Z,18.30
2022-09-02T19:48:18.629Z,18.39
2022-09-02T19:50:48.662Z,18.50
2022-09-02T19:53:19.690Z,18.29
2022-09-02T19:55:47.713Z,18.31
2022-09-02T19:58:15.348Z,18.13
2022-09-02T20:00:44.203Z,18.18
2022-09-02T20:03:13.246Z,18.05
2022-09-02T20:05:41.410Z,18.01
2022-09-02T20:08:09.650Z,17.82
2022-09-02T20:10:37.692Z,17.94
2022-09-02T20:13:05.528Z,17.71
2022-09-02T20:15:37.374Z,17.75
2022-09-02T20:18:10.427Z,17.77
2022-09-02T20:20:43.090Z,17.84
2022-09-02T20:23:13.921Z,17.91
2022-09-02T20:25:56.516Z,17.72
2022-09-02T20:28:26.052Z,17.48
2022-09-02T20:30:58.710Z,17.36
2022-09-02T20:33:32.476Z,17.63
2022-09-02T20:36:12.039Z,17.73
2022-09-02T20:38:51.934Z,17.49
2022-09-02T20:41:28.475Z,17.49
2022-09-02T20:44:18.333Z,17.29
2022-09-02T20:46:57.226Z,17.29
2022-09-02T20:49:50.209Z,17.34
2022-09-02T20:52:25.880Z,17.36
2022-09-02T20:54:56.403Z,17.13
2022-09-02T20:57:34.698Z,16.96
2022-09-02T21:00:07.826Z,16.87
2022-09-02T21:02:39.772Z,17.03
2022-09-02T21:05:12.172Z,16.91
2022-09-02T21:07:45.495Z,17.06
2022-09-02T21:10:17.752Z,17.23
2022-09-02T21:12:49.370Z,16.80
2022-09-02T21:15:25.649Z,16.63
2022-09-02T21:17:57.594Z,16.73
2022-09-02T21:20:29.666Z,17.00
2022-09-02T21:23:02.432Z,16.86
2022-09-02T21:25:35.987Z,16.66
2022-09-02T21:28:07.279Z,16.89
2022-09-02T21:30:39.377Z,16.93
2022-09-02T21:33:10.884Z,16.84
2022-09-02T21:35:40.236Z,16.69
2022-09-02T21:38:11.815Z,16.72
2022-09-02T21:40:53.524Z,16.79
2022-09-02T21:43:31.024Z,16.87
2022-09-02T21:46:08.093Z,16.79
2022-09-02T21:48:42.475Z,16.95
2022-09-02T21:51:15.999Z,16.86
2022-09-02T21:53:53.628Z,16.74
2022-09-02T21:56:32.232Z,16.75
2022-09-02T21:59:11.896Z,16.74
2022-09-02T22:01:45.216Z,16.82
2022-09-02T22:04:24.259Z,16.74
2022-09-02T22:06:57.879Z,16.77
2022-09-02T22:09:28.832Z,16.52
2022-09-02T22:12:01.895Z,16.67
2022-09-02T22:14:34.600Z,16.49
2022-09-02T22:17:06.059Z,16.55
2022-09-02T22:19:38.851Z,16.67
2022-09-02T22:22:10.258Z,16.57
2022-09-02T22:24:40.420Z,16.61
2022-09-02T22:27:12.759Z,16.65
2022-09-02T22:29:44.029Z,16.53
2022-09-02T22:32:14.313Z,16.67
2022-09-02T22:34:44.916Z,16.54
2022-09-02T22:37:18.657Z,16.55
2022-09-02T22:39:50.429Z,16.54
2022-09-02T22:42:22.104Z,16.52
2022-09-02T22:45:11.451Z,16.45
2022-09-02T22:47:58.930Z,16.54
2022-09-02T22:50:46.702Z,16.42
2022-09-02T22:53:14.307Z,16.30
2022-09-02T22:55:56.604Z,16.29
2022-09-02T22:58:38.566Z,15.92
2022-09-02T23:01:13.488Z,16.33
2022-09-02T23:03:44.321Z,16.26
2022-09-02T23:06:20.833Z,16.13
2022-09-02T23:08:48.847Z,16.17
2022-09-02T23:11:27.935Z,16.15
2022-09-02T23:14:09.098Z,16.22
2022-09-02T23:16:49.563Z,15.98
2022-09-02T23:19:22.411Z,15.84
2022-09-02T23:22:00.535Z,15.98
2022-09-02T23:24:33.206Z,16.00
2022-09-02T23:27:08.046Z,15.98
2022-09-02T23:29:37.604Z,15.82
2022-09-02T23:32:31.989Z,15.75
2022-09-02T23:35:12.360Z,15.85
2022-09-02T23:37:48.592Z,15.88
2022-09-02T23:40:22.587Z,15.92
2022-09-02T23:42:51.663Z,15.72
2022-09-02T23:45:21.699Z,15.76
2022-09-02T23:48:02.491Z,15.59
2022-09-02T23:50:35.883Z,15.68
2022-09-02T23:53:10.240Z,15.60
2022-09-02T23:55:44.014Z,15.53
2022-09-02T23:58:23.740Z,15.60
